• Join FlightAware (Why Join?)
  • Login
  • US Flag 
 
09:23PM EST


 

Airport Tracker/Info


-or-


 

Live Flight TrackerFlight Track Log ✈ GJS3636 ✈ 27-Jul-2013 ✈ KMCI - KORD

Flight Track Log - Related Links

Times and Time Zones

All times are in EDT time to prevent confusion due to time zone crossing. See the GJS3636 flight status page for this flight to view local times or setup timezone preferences in your user account.

Time Position Orientation Groundspeed Altitude Reporting Facility
EDT Latitude Longitude Course Direction KTS MPH feet Rate Location/Type
11:58AM 39.3167 -94.7167 84° East 151 174 1,600  Level Kansas City TRACON
11:59AM 39.3500 -94.7000 21° North 169 194 2,900 2,220 Climbing Kansas City TRACON
12:00PM 39.4000 -94.6500 38° Northeast 229 264 5,600 2,400 Climbing Kansas City TRACON
12:01PM 39.3517 -94.1937 80° East  Level FlightAware Approximate
12:01PM 39.4000 -94.5500 90° East 274 315 8,000  Level Kansas City TRACON
12:02PM 39.3703 -94.0504 82° East  Level FlightAware Approximate
12:02PM 39.3817 -94.4642 105° East 285 328 10,000  Level Kansas City Center
12:03PM 39.3854 -93.9064 84° East  Level FlightAware Approximate
12:03PM 39.4261 -94.3672 59° Northeast 290 334 12,300  Level Kansas City Center
12:04PM 39.4950 -94.3158 30° Northeast 305 351 13,800 1,260 Climbing Kansas City Center
12:05PM 39.5919 -94.2697 20° North 357 411 15,000 960 Climbing Kansas City Center
12:06PM 39.6703 -94.1786 42° Northeast 394 453 15,900 1,260 Climbing Kansas City Center
12:07PM 39.7628 -94.0664 43° Northeast 408 470 17,700 1,740 Climbing Kansas City Center
12:08PM 39.8489 -93.9539 45° Northeast 422 486 19,500 1,680 Climbing Kansas City Center
12:09PM 39.9367 -93.8536 41° Northeast 421 484 21,200 1,620 Climbing Kansas City Center
12:10PM 40.0231 -93.7472 43° Northeast 427 491 22,900 1,560 Climbing Kansas City Center
12:11PM 40.0433 -93.5789 81° East 470 541 24,500 1,440 Climbing Kansas City Center
12:12PM 40.0603 -93.4078 83° East 476 548 25,900 1,200 Climbing Kansas City Center
12:13PM 40.0797 -93.1994 83° East 487 560 27,100 1,020 Climbing Kansas City Center
12:14PM 40.0961 -93.0214 83° East 498 573 28,100 960 Climbing Kansas City Center
12:15PM 40.1108 -92.8450 84° East 506 582 29,100 960 Climbing Kansas City Center
12:16PM 40.1303 -92.6364 83° East 515 593 30,200 960 Climbing Kansas City Center
12:17PM 40.1764 -92.4753 69° East 495 570 31,200 960 Climbing Kansas City Center
12:18PM 40.2400 -92.3033 64° Northeast 491 565 32,300 840 Climbing Kansas City Center
12:19PM 40.2972 -92.1436 65° Northeast 491 565 33,000 300 Climbing Kansas City Center
12:20PM 40.3553 -91.9783 65° Northeast 499 574 33,000  Level Kansas City Center
12:21PM 40.3925 -91.8758 64° Northeast 514 592 33,000  Level Chicago Center
12:21PM 40.4289 -91.7717 65° Northeast 521 600 33,000  Level Kansas City Center
12:22PM 40.4883 -91.5936 66° East 534 615 33,000  Level Kansas City Center
12:23PM 40.5483 -91.4169 66° East 535 616 33,000  Level Kansas City Center
12:24PM 40.6125 -91.2303 66° East 535 616 33,000  Level Kansas City Center
12:25PM 40.6503 -91.1236 65° Northeast 533 613 33,000 -180 Level Chicago Center
12:26PM 40.7122 -90.9456 65° Northeast 534 615 32,800 -840 Descending Chicago Center
12:27PM 40.7731 -90.7614 66° East 545 627 31,300 -1,500 Descending Chicago Center
12:28PM 40.8361 -90.5756 66° East 551 634 29,800 -1,500 Descending Chicago Center
12:29PM 40.8972 -90.3944 66° East 542 624 28,300 -1,560 Descending Chicago Center
12:30PM 40.9614 -90.2025 66° East 523 602 26,600 -1,500 Descending Chicago Center
12:31PM 41.0131 -90.0467 66° East 504 580 25,300 -1,260 Descending Chicago Center
12:32PM 41.0794 -89.8433 67° East 497 572 24,100 -660 Descending Chicago Center
12:33PM 41.1328 -89.6781 67° East 487 560 24,000 -660 Descending Chicago Center
12:34PM 41.1911 -89.5147 65° Northeast 489 563 22,800 -1,800 Descending Chicago Center
12:35PM 41.2553 -89.3558 62° Northeast 491 565 20,300 -2,400 Descending Chicago Center
12:36PM 41.3158 -89.2053 62° Northeast 471 542 17,900 -2,340 Descending Chicago Center
12:37PM 41.3706 -89.0650 62° Northeast 430 495 15,500 -2,340 Descending Chicago Center
12:38PM 41.4250 -88.9306 62° Northeast 420 483 13,100 -2,160 Descending Chicago Center
12:40PM 41.4867 -88.7744 62° Northeast 402 463 11,100 -1,020 Descending Chicago Center
12:41PM 41.5386 -88.6417 62° Northeast 402 463 11,000 -60 Descending Chicago Center
12:42PM 41.6014 -88.5136 57° Northeast 409 471 11,000  Level Chicago Center
12:43PM 41.6778 -88.3983 48° Northeast 412 474 11,000  Level Chicago Center
12:44PM 41.7514 -88.2811 50° Northeast 411 473 11,000  Level Chicago Center
12:45PM 41.8250 -88.1642 50° Northeast 410 472 11,000 -300 Level Chicago Center
12:46PM 41.8792 -87.9981 66° East 406 467 10,400 -540 Descending Chicago Center
12:47PM 41.8847 -87.8628 87° East 360 414 10,000 -720 Descending Chicago Center
12:48PM 41.8833 -87.7494 91° East 310 357 9,000 -780 Descending Chicago Center
12:49PM 41.8822 -87.6400 91° East 297 342 8,400 -540 Descending Chicago Center
12:50PM 41.8836 -87.5336 89° East 288 331 8,000 -720 Descending Chicago Center
12:51PM 41.8925 -87.4319 83° East 278 320 7,000 -540 Descending Chicago Center
12:52PM 41.9183 -87.3411 69° East 239 275 7,000  Level Chicago Center
12:53PM 41.9686 -87.3728 335° Northwest 221 254 7,000  Level Chicago Center
12:54PM 41.9833 -87.4442 286° West 201 231 7,000 -540 Level Chicago Center
12:55PM 41.9825 -87.5061 269° West 171 197 6,000 -840 Descending Chicago Center
12:56PM 41.9825 -87.5692 270° West 168 193 5,300 -660 Descending Chicago Center
12:57PM 41.9844 -87.6478 272° West 175 201 4,700 -1,020 Descending Chicago Center
12:58PM 41.9836 -87.7158 269° West 181 208 3,200 -1,200 Descending Chicago Center
12:59PM 41.9842 -87.7842 271° West 183 211 2,300 -780 Descending Chicago Center
01:00PM 41.9833 -87.8447 269° West 177 204 1,600 -720 Descending Chicago Center